sensor_id;sensor_type;location;lat;lon;timestamp;pressure;altitude;pressure_sealevel;temperature
40199;BMP280;25906;43.536;26.068;2023-02-24T00:01:48;98813.56;;;10.90
40199;BMP280;25906;43.536;26.068;2023-02-24T00:04:38;98812.81;;;11.35
40199;BMP280;25906;43.536;26.068;2023-02-24T00:07:23;98794.81;;;6.24
40199;BMP280;25906;43.536;26.068;2023-02-24T00:10:10;98802.19;;;10.30
40199;BMP280;25906;43.536;26.068;2023-02-24T00:12:55;98794.13;;;9.96
40199;BMP280;25906;43.536;26.068;2023-02-24T00:15:41;98797.66;;;10.15
40199;BMP280;25906;43.536;26.068;2023-02-24T00:18:26;98781.16;;;9.78
40199;BMP280;25906;43.536;26.068;2023-02-24T00:21:14;98772.03;;;9.73
40199;BMP280;25906;43.536;26.068;2023-02-24T00:24:00;98776.63;;;9.63
40199;BMP280;25906;43.536;26.068;2023-02-24T00:26:53;98770.34;;;10.21
40199;BMP280;25906;43.536;26.068;2023-02-24T00:29:39;98768.53;;;9.47
40199;BMP280;25906;43.536;26.068;2023-02-24T00:32:26;98760.31;;;10.40
40199;BMP280;25906;43.536;26.068;2023-02-24T00:35:11;98759.38;;;10.19
40199;BMP280;25906;43.536;26.068;2023-02-24T00:37:57;98771.84;;;10.57
40199;BMP280;25906;43.536;26.068;2023-02-24T00:40:42;98761.84;;;10.24
40199;BMP280;25906;43.536;26.068;2023-02-24T00:43:32;98753.84;;;6.03
40199;BMP280;25906;43.536;26.068;2023-02-24T00:46:23;98752.22;;;9.54
40199;BMP280;25906;43.536;26.068;2023-02-24T00:49:15;98741.94;;;5.77
40199;BMP280;25906;43.536;26.068;2023-02-24T00:52:01;98746.63;;;9.01
40199;BMP280;25906;43.536;26.068;2023-02-24T00:54:50;98745.63;;;9.31
40199;BMP280;25906;43.536;26.068;2023-02-24T00:57:36;98746.88;;;8.72
40199;BMP280;25906;43.536;26.068;2023-02-24T01:00:24;98737.72;;;8.43
40199;BMP280;25906;43.536;26.068;2023-02-24T01:03:09;98733.38;;;10.06
40199;BMP280;25906;43.536;26.068;2023-02-24T01:05:55;98732.38;;;9.76
40199;BMP280;25906;43.536;26.068;2023-02-24T01:08:40;98734.19;;;9.56
40199;BMP280;25906;43.536;26.068;2023-02-24T01:11:33;98725.19;;;5.91
40199;BMP280;25906;43.536;26.068;2023-02-24T01:14:37;98727.63;;;8.68
40199;BMP280;25906;43.536;26.068;2023-02-24T01:17:23;98727.25;;;8.96
40199;BMP280;25906;43.536;26.068;2023-02-24T01:20:10;98709.72;;;5.84
40199;BMP280;25906;43.536;26.068;2023-02-24T01:23:00;98709.75;;;5.01
40199;BMP280;25906;43.536;26.068;2023-02-24T01:25:47;98700.84;;;4.85
40199;BMP280;25906;43.536;26.068;2023-02-24T01:28:33;98699.34;;;4.97
40199;BMP280;25906;43.536;26.068;2023-02-24T01:31:18;98706.22;;;8.14
40199;BMP280;25906;43.536;26.068;2023-02-24T01:34:04;98711.69;;;9.37
40199;BMP280;25906;43.536;26.068;2023-02-24T01:36:50;98710.19;;;9.60
40199;BMP280;25906;43.536;26.068;2023-02-24T01:39:35;98704.59;;;8.91
40199;BMP280;25906;43.536;26.068;2023-02-24T01:42:21;98705.56;;;5.40
40199;BMP280;25906;43.536;26.068;2023-02-24T01:45:15;98700.56;;;5.17
40199;BMP280;25906;43.536;26.068;2023-02-24T01:48:05;98699.22;;;5.03
40199;BMP280;25906;43.536;26.068;2023-02-24T01:50:52;98702.75;;;4.98
40199;BMP280;25906;43.536;26.068;2023-02-24T01:53:38;98697.53;;;4.92
40199;BMP280;25906;43.536;26.068;2023-02-24T01:56:23;98713.94;;;8.90
40199;BMP280;25906;43.536;26.068;2023-02-24T01:59:09;98715.06;;;9.88
40199;BMP280;25906;43.536;26.068;2023-02-24T02:01:57;98706.75;;;9.60
40199;BMP280;25906;43.536;26.068;2023-02-24T02:04:53;98700.91;;;9.80
40199;BMP280;25906;43.536;26.068;2023-02-24T02:07:41;98697.44;;;9.70
40199;BMP280;25906;43.536;26.068;2023-02-24T02:10:27;98700.81;;;9.45
40199;BMP280;25906;43.536;26.068;2023-02-24T02:13:14;98699.47;;;9.36
40199;BMP280;25906;43.536;26.068;2023-02-24T02:35:15;98694.16;;;6.40
40199;BMP280;25906;43.536;26.068;2023-02-24T02:38:17;98680.25;;;4.80
40199;BMP280;25906;43.536;26.068;2023-02-24T02:42:02;98698.09;;;9.28
40199;BMP280;25906;43.536;26.068;2023-02-24T02:44:35;98698.38;;;9.82
40199;BMP280;25906;43.536;26.068;2023-02-24T02:47:28;98697.66;;;9.55
40199;BMP280;25906;43.536;26.068;2023-02-24T02:53:14;98706.25;;;10.49
40199;BMP280;25906;43.536;26.068;2023-02-24T02:56:31;98706.75;;;10.39
40199;BMP280;25906;43.536;26.068;2023-02-24T02:59:20;98703.72;;;10.25
40199;BMP280;25906;43.536;26.068;2023-02-24T03:02:08;98696.75;;;10.22
40199;BMP280;25906;43.536;26.068;2023-02-24T03:05:00;98696.44;;;9.92
40199;BMP280;25906;43.536;26.068;2023-02-24T03:07:50;98690.50;;;10.29
40199;BMP280;25906;43.536;26.068;2023-02-24T03:10:39;98690.63;;;10.22
40199;BMP280;25906;43.536;26.068;2023-02-24T03:13:29;98689.59;;;10.17
40199;BMP280;25906;43.536;26.068;2023-02-24T03:16:16;98684.78;;;10.25
40199;BMP280;25906;43.536;26.068;2023-02-24T03:19:06;98681.56;;;7.39
40199;BMP280;25906;43.536;26.068;2023-02-24T03:22:14;98671.44;;;5.21
40199;BMP280;25906;43.536;26.068;2023-02-24T03:25:02;98660.50;;;4.71
40199;BMP280;25906;43.536;26.068;2023-02-24T03:31:42;98666.53;;;9.64
40199;BMP280;25906;43.536;26.068;2023-02-24T03:37:31;98661.97;;;10.09
40199;BMP280;25906;43.536;26.068;2023-02-24T03:40:18;98667.31;;;10.00
40199;BMP280;25906;43.536;26.068;2023-02-24T03:45:53;98678.09;;;10.17
40199;BMP280;25906;43.536;26.068;2023-02-24T03:48:45;98663.44;;;10.29
40199;BMP280;25906;43.536;26.068;2023-02-24T03:51:31;98667.81;;;10.51
40199;BMP280;25906;43.536;26.068;2023-02-24T04:00:14;98660.63;;;10.46
40199;BMP280;25906;43.536;26.068;2023-02-24T04:10:12;98654.25;;;4.68
40199;BMP280;25906;43.536;26.068;2023-02-24T04:13:18;98653.56;;;4.75
40199;BMP280;25906;43.536;26.068;2023-02-24T04:16:29;98643.06;;;4.77
40199;BMP280;25906;43.536;26.068;2023-02-24T04:19:22;98636.19;;;4.89
40199;BMP280;25906;43.536;26.068;2023-02-24T04:22:12;98633.41;;;4.81
40199;BMP280;25906;43.536;26.068;2023-02-24T04:25:01;98638.47;;;4.65
40199;BMP280;25906;43.536;26.068;2023-02-24T04:27:54;98635.50;;;4.55
40199;BMP280;25906;43.536;26.068;2023-02-24T04:30:44;98633.63;;;4.63
40199;BMP280;25906;43.536;26.068;2023-02-24T04:33:32;98627.59;;;4.70
40199;BMP280;25906;43.536;26.068;2023-02-24T04:36:19;98630.63;;;4.67
40199;BMP280;25906;43.536;26.068;2023-02-24T04:39:05;98627.03;;;4.64
40199;BMP280;25906;43.536;26.068;2023-02-24T04:41:51;98625.00;;;4.77
40199;BMP280;25906;43.536;26.068;2023-02-24T04:44:37;98631.53;;;9.66
40199;BMP280;25906;43.536;26.068;2023-02-24T04:47:22;98625.53;;;9.84
40199;BMP280;25906;43.536;26.068;2023-02-24T04:50:08;98632.09;;;10.17
40199;BMP280;25906;43.536;26.068;2023-02-24T04:52:56;98626.56;;;9.89
40199;BMP280;25906;43.536;26.068;2023-02-24T04:55:46;98621.97;;;10.17
40199;BMP280;25906;43.536;26.068;2023-02-24T04:58:36;98612.59;;;10.28
40199;BMP280;25906;43.536;26.068;2023-02-24T05:01:22;98618.88;;;10.30
40199;BMP280;25906;43.536;26.068;2023-02-24T05:04:09;98621.22;;;10.52
40199;BMP280;25906;43.536;26.068;2023-02-24T05:06:55;98620.13;;;10.74
40199;BMP280;25906;43.536;26.068;2023-02-24T05:09:41;98612.28;;;11.06
40199;BMP280;25906;43.536;26.068;2023-02-24T05:12:27;98618.66;;;9.74
40199;BMP280;25906;43.536;26.068;2023-02-24T05:15:13;98610.78;;;10.30
40199;BMP280;25906;43.536;26.068;2023-02-24T05:18:00;98621.41;;;10.83
40199;BMP280;25906;43.536;26.068;2023-02-24T05:20:53;98622.84;;;11.12
40199;BMP280;25906;43.536;26.068;2023-02-24T05:23:58;98624.28;;;10.94
40199;BMP280;25906;43.536;26.068;2023-02-24T05:26:43;98629.09;;;10.86
40199;BMP280;25906;43.536;26.068;2023-02-24T05:29:31;98616.81;;;5.96
40199;BMP280;25906;43.536;26.068;2023-02-24T05:32:17;98620.06;;;10.01
40199;BMP280;25906;43.536;26.068;2023-02-24T05:35:03;98632.59;;;9.97
40199;BMP280;25906;43.536;26.068;2023-02-24T05:37:49;98632.28;;;10.38
40199;BMP280;25906;43.536;26.068;2023-02-24T05:40:35;98623.63;;;10.39
40199;BMP280;25906;43.536;26.068;2023-02-24T05:43:29;98634.19;;;10.45
40199;BMP280;25906;43.536;26.068;2023-02-24T05:46:15;98630.63;;;10.51
40199;BMP280;25906;43.536;26.068;2023-02-24T05:49:07;98640.16;;;10.52
40199;BMP280;25906;43.536;26.068;2023-02-24T05:51:57;98640.72;;;10.42
40199;BMP280;25906;43.536;26.068;2023-02-24T05:54:44;98638.38;;;10.74
40199;BMP280;25906;43.536;26.068;2023-02-24T05:57:32;98636.53;;;10.76
40199;BMP280;25906;43.536;26.068;2023-02-24T06:00:20;98645.19;;;10.65
40199;BMP280;25906;43.536;26.068;2023-02-24T06:03:10;98644.50;;;10.84
40199;BMP280;25906;43.536;26.068;2023-02-24T06:06:01;98655.03;;;10.80
40199;BMP280;25906;43.536;26.068;2023-02-24T06:08:53;98640.09;;;10.97
40199;BMP280;25906;43.536;26.068;2023-02-24T06:11:41;98647.63;;;11.27
40199;BMP280;25906;43.536;26.068;2023-02-24T06:14:26;98650.03;;;11.42
40199;BMP280;25906;43.536;26.068;2023-02-24T06:17:14;98648.56;;;11.69
40199;BMP280;25906;43.536;26.068;2023-02-24T06:20:01;98633.97;;;5.85
40199;BMP280;25906;43.536;26.068;2023-02-24T06:22:57;98646.94;;;9.13
40199;BMP280;25906;43.536;26.068;2023-02-24T06:25:42;98640.31;;;10.45
40199;BMP280;25906;43.536;26.068;2023-02-24T06:28:29;98640.59;;;10.58
40199;BMP280;25906;43.536;26.068;2023-02-24T06:31:15;98628.81;;;5.95
40199;BMP280;25906;43.536;26.068;2023-02-24T06:34:00;98636.78;;;6.90
40199;BMP280;25906;43.536;26.068;2023-02-24T06:36:46;98627.03;;;5.47
40199;BMP280;25906;43.536;26.068;2023-02-24T06:39:33;98640.97;;;10.00
40199;BMP280;25906;43.536;26.068;2023-02-24T06:42:21;98627.56;;;6.03
40199;BMP280;25906;43.536;26.068;2023-02-24T06:45:07;98628.13;;;8.72
40199;BMP280;25906;43.536;26.068;2023-02-24T06:47:52;98637.13;;;9.25
40199;BMP280;25906;43.536;26.068;2023-02-24T06:50:38;98632.38;;;9.59
40199;BMP280;25906;43.536;26.068;2023-02-24T06:53:24;98627.06;;;9.78
40199;BMP280;25906;43.536;26.068;2023-02-24T06:56:15;98626.09;;;10.18
40199;BMP280;25906;43.536;26.068;2023-02-24T06:59:04;98615.59;;;10.22
40199;BMP280;25906;43.536;26.068;2023-02-24T07:01:51;98614.19;;;10.40
40199;BMP280;25906;43.536;26.068;2023-02-24T07:04:38;98606.44;;;10.63
40199;BMP280;25906;43.536;26.068;2023-02-24T07:07:27;98606.16;;;10.87
40199;BMP280;25906;43.536;26.068;2023-02-24T07:10:13;98605.13;;;10.45
40199;BMP280;25906;43.536;26.068;2023-02-24T07:12:59;98608.56;;;10.74
40199;BMP280;25906;43.536;26.068;2023-02-24T07:15:45;98607.00;;;10.71
40199;BMP280;25906;43.536;26.068;2023-02-24T07:18:33;98600.47;;;10.64
40199;BMP280;25906;43.536;26.068;2023-02-24T07:21:20;98606.00;;;10.85
40199;BMP280;25906;43.536;26.068;2023-02-24T07:24:12;98603.44;;;10.87
40199;BMP280;25906;43.536;26.068;2023-02-24T07:27:20;98606.28;;;11.08
40199;BMP280;25906;43.536;26.068;2023-02-24T07:30:06;98613.09;;;11.37
40199;BMP280;25906;43.536;26.068;2023-02-24T07:32:55;98599.31;;;10.96
40199;BMP280;25906;43.536;26.068;2023-02-24T07:35:40;98592.88;;;10.91
40199;BMP280;25906;43.536;26.068;2023-02-24T07:38:26;98591.59;;;11.11
40199;BMP280;25906;43.536;26.068;2023-02-24T07:41:12;98598.81;;;11.46
40199;BMP280;25906;43.536;26.068;2023-02-24T07:44:03;98602.13;;;11.35
40199;BMP280;25906;43.536;26.068;2023-02-24T07:46:53;98597.56;;;11.77
40199;BMP280;25906;43.536;26.068;2023-02-24T07:49:40;98605.88;;;12.30
40199;BMP280;25906;43.536;26.068;2023-02-24T07:52:26;98596.34;;;12.29
40199;BMP280;25906;43.536;26.068;2023-02-24T07:55:11;98595.31;;;12.34
40199;BMP280;25906;43.536;26.068;2023-02-24T07:57:57;98584.88;;;12.51
40199;BMP280;25906;43.536;26.068;2023-02-24T08:00:45;98590.00;;;12.57
40199;BMP280;25906;43.536;26.068;2023-02-24T08:03:58;98582.16;;;12.72
40199;BMP280;25906;43.536;26.068;2023-02-24T08:06:46;98577.34;;;12.82
40199;BMP280;25906;43.536;26.068;2023-02-24T08:09:34;98571.50;;;12.97
40199;BMP280;25906;43.536;26.068;2023-02-24T08:12:46;98572.50;;;13.24
40199;BMP280;25906;43.536;26.068;2023-02-24T08:15:31;98570.56;;;13.04
40199;BMP280;25906;43.536;26.068;2023-02-24T08:18:18;98575.72;;;13.32
40199;BMP280;25906;43.536;26.068;2023-02-24T08:21:04;98568.28;;;13.89
40199;BMP280;25906;43.536;26.068;2023-02-24T08:23:49;98572.19;;;13.98
40199;BMP280;25906;43.536;26.068;2023-02-24T08:26:37;98572.84;;;14.21
40199;BMP280;25906;43.536;26.068;2023-02-24T08:29:33;98562.81;;;14.01
40199;BMP280;25906;43.536;26.068;2023-02-24T08:32:41;98569.25;;;14.66
40199;BMP280;25906;43.536;26.068;2023-02-24T08:35:33;98569.19;;;15.02
40199;BMP280;25906;43.536;26.068;2023-02-24T08:38:20;98558.31;;;14.53
40199;BMP280;25906;43.536;26.068;2023-02-24T08:41:13;98560.03;;;14.60
40199;BMP280;25906;43.536;26.068;2023-02-24T08:44:02;98563.81;;;14.91
40199;BMP280;25906;43.536;26.068;2023-02-24T08:46:48;98559.34;;;14.84
40199;BMP280;25906;43.536;26.068;2023-02-24T08:49:34;98556.66;;;15.35
40199;BMP280;25906;43.536;26.068;2023-02-24T08:52:19;98565.03;;;15.01
40199;BMP280;25906;43.536;26.068;2023-02-24T08:55:05;98558.63;;;15.21
40199;BMP280;25906;43.536;26.068;2023-02-24T08:57:56;98561.41;;;14.97
40199;BMP280;25906;43.536;26.068;2023-02-24T09:00:45;98572.00;;;15.55
40199;BMP280;25906;43.536;26.068;2023-02-24T09:03:34;98571.81;;;15.78
40199;BMP280;25906;43.536;26.068;2023-02-24T09:06:24;98567.75;;;15.52
40199;BMP280;25906;43.536;26.068;2023-02-24T09:09:17;98568.16;;;15.60
40199;BMP280;25906;43.536;26.068;2023-02-24T09:12:04;98568.22;;;16.29
40199;BMP280;25906;43.536;26.068;2023-02-24T09:14:56;98571.06;;;16.46
40199;BMP280;25906;43.536;26.068;2023-02-24T09:17:43;98567.94;;;16.52
40199;BMP280;25906;43.536;26.068;2023-02-24T09:20:29;98577.78;;;16.87
40199;BMP280;25906;43.536;26.068;2023-02-24T09:23:41;98570.34;;;16.31
40199;BMP280;25906;43.536;26.068;2023-02-24T09:26:30;98563.28;;;16.12
40199;BMP280;25906;43.536;26.068;2023-02-24T09:29:27;98565.03;;;16.35
40199;BMP280;25906;43.536;26.068;2023-02-24T09:32:18;98559.78;;;16.38
40199;BMP280;25906;43.536;26.068;2023-02-24T09:35:04;98558.16;;;16.34
40199;BMP280;25906;43.536;26.068;2023-02-24T09:37:49;98555.72;;;16.39
40199;BMP280;25906;43.536;26.068;2023-02-24T09:40:37;98541.34;;;16.10
40199;BMP280;25906;43.536;26.068;2023-02-24T09:43:26;98541.63;;;16.16
40199;BMP280;25906;43.536;26.068;2023-02-24T09:46:14;98537.25;;;16.25
40199;BMP280;25906;43.536;26.068;2023-02-24T09:49:06;98540.34;;;15.91
40199;BMP280;25906;43.536;26.068;2023-02-24T09:51:57;98553.16;;;16.15
40199;BMP280;25906;43.536;26.068;2023-02-24T09:54:53;98545.13;;;16.32
40199;BMP280;25906;43.536;26.068;2023-02-24T09:58:05;98547.34;;;16.36
40199;BMP280;25906;43.536;26.068;2023-02-24T10:04:57;98537.28;;;16.69
40199;BMP280;25906;43.536;26.068;2023-02-24T10:07:52;98542.25;;;16.43
40199;BMP280;25906;43.536;26.068;2023-02-24T10:10:41;98530.00;;;16.44
40199;BMP280;25906;43.536;26.068;2023-02-24T10:13:48;98521.53;;;10.77
40199;BMP280;25906;43.536;26.068;2023-02-24T10:16:39;98517.69;;;8.83
40199;BMP280;25906;43.536;26.068;2023-02-24T10:19:28;98500.94;;;8.85
40199;BMP280;25906;43.536;26.068;2023-02-24T10:22:25;98499.63;;;8.59
40199;BMP280;25906;43.536;26.068;2023-02-24T10:31:13;98479.88;;;9.00
40199;BMP280;25906;43.536;26.068;2023-02-24T10:34:11;98472.72;;;9.12
40199;BMP280;25906;43.536;26.068;2023-02-24T10:37:02;98460.47;;;9.11
40199;BMP280;25906;43.536;26.068;2023-02-24T10:40:04;98461.25;;;9.21
40199;BMP280;25906;43.536;26.068;2023-02-24T10:43:02;98456.19;;;9.34
40199;BMP280;25906;43.536;26.068;2023-02-24T10:45:47;98447.22;;;9.32
40199;BMP280;25906;43.536;26.068;2023-02-24T10:48:34;98452.84;;;14.93
40199;BMP280;25906;43.536;26.068;2023-02-24T10:51:39;98443.38;;;15.21
40199;BMP280;25906;43.536;26.068;2023-02-24T10:54:27;98443.47;;;15.50
40199;BMP280;25906;43.536;26.068;2023-02-24T10:57:43;98436.47;;;15.73
40199;BMP280;25906;43.536;26.068;2023-02-24T11:00:46;98433.16;;;15.48
40199;BMP280;25906;43.536;26.068;2023-02-24T11:03:39;98416.44;;;13.52
40199;BMP280;25906;43.536;26.068;2023-02-24T11:06:32;98413.53;;;14.09
40199;BMP280;25906;43.536;26.068;2023-02-24T11:09:38;98394.50;;;14.33
40199;BMP280;25906;43.536;26.068;2023-02-24T11:12:47;98386.63;;;14.39
40199;BMP280;25906;43.536;26.068;2023-02-24T11:15:53;98366.41;;;14.18
40199;BMP280;25906;43.536;26.068;2023-02-24T11:18:57;98366.69;;;9.66
40199;BMP280;25906;43.536;26.068;2023-02-24T11:21:43;98368.31;;;13.54
40199;BMP280;25906;43.536;26.068;2023-02-24T11:24:28;98369.53;;;14.25
40199;BMP280;25906;43.536;26.068;2023-02-24T11:27:22;98378.38;;;14.37
40199;BMP280;25906;43.536;26.068;2023-02-24T11:30:33;98376.00;;;14.70
40199;BMP280;25906;43.536;26.068;2023-02-24T11:33:36;98382.06;;;14.82
40199;BMP280;25906;43.536;26.068;2023-02-24T11:36:58;98377.22;;;14.94
40199;BMP280;25906;43.536;26.068;2023-02-24T11:46:16;98353.34;;;12.07
40199;BMP280;25906;43.536;26.068;2023-02-24T11:49:15;98364.09;;;10.52
40199;BMP280;25906;43.536;26.068;2023-02-24T11:52:04;98354.06;;;10.25
40199;BMP280;25906;43.536;26.068;2023-02-24T11:54:56;98362.34;;;14.57
40199;BMP280;25906;43.536;26.068;2023-02-24T11:57:46;98355.25;;;15.45
40199;BMP280;25906;43.536;26.068;2023-02-24T12:00:34;98362.94;;;15.77
40199;BMP280;25906;43.536;26.068;2023-02-24T12:03:41;98353.78;;;15.29
40199;BMP280;25906;43.536;26.068;2023-02-24T12:06:41;98346.16;;;15.54
40199;BMP280;25906;43.536;26.068;2023-02-24T12:09:51;98337.47;;;15.73
40199;BMP280;25906;43.536;26.068;2023-02-24T12:19:00;98331.66;;;16.39
40199;BMP280;25906;43.536;26.068;2023-02-24T12:21:58;98335.44;;;16.48
40199;BMP280;25906;43.536;26.068;2023-02-24T12:24:47;98332.53;;;16.44
40199;BMP280;25906;43.536;26.068;2023-02-24T12:31:05;98325.66;;;16.91
40199;BMP280;25906;43.536;26.068;2023-02-24T12:36:56;98313.53;;;17.11
40199;BMP280;25906;43.536;26.068;2023-02-24T12:43:21;98304.16;;;16.99
40199;BMP280;25906;43.536;26.068;2023-02-24T12:46:22;98311.13;;;17.36
40199;BMP280;25906;43.536;26.068;2023-02-24T12:49:29;98315.09;;;17.16
40199;BMP280;25906;43.536;26.068;2023-02-24T12:55:32;98304.06;;;17.66
40199;BMP280;25906;43.536;26.068;2023-02-24T12:58:29;98302.09;;;17.68
40199;BMP280;25906;43.536;26.068;2023-02-24T13:01:35;98296.94;;;17.76
40199;BMP280;25906;43.536;26.068;2023-02-24T13:04:54;98299.66;;;17.94
40199;BMP280;25906;43.536;26.068;2023-02-24T13:10:43;98294.94;;;17.96
40199;BMP280;25906;43.536;26.068;2023-02-24T13:16:42;98299.38;;;18.24
40199;BMP280;25906;43.536;26.068;2023-02-24T13:19:28;98298.19;;;18.10
40199;BMP280;25906;43.536;26.068;2023-02-24T13:25:21;98289.19;;;18.07
40199;BMP280;25906;43.536;26.068;2023-02-24T13:28:38;98283.78;;;18.29
40199;BMP280;25906;43.536;26.068;2023-02-24T13:31:23;98285.97;;;18.51
40199;BMP280;25906;43.536;26.068;2023-02-24T13:34:28;98279.09;;;18.12
40199;BMP280;25906;43.536;26.068;2023-02-24T13:37:35;98272.00;;;18.65
40199;BMP280;25906;43.536;26.068;2023-02-24T13:40:24;98265.72;;;18.22
40199;BMP280;25906;43.536;26.068;2023-02-24T13:43:26;98271.19;;;18.82
40199;BMP280;25906;43.536;26.068;2023-02-24T13:46:16;98272.22;;;18.71
40199;BMP280;25906;43.536;26.068;2023-02-24T13:49:22;98269.28;;;18.86
40199;BMP280;25906;43.536;26.068;2023-02-24T13:58:19;98255.31;;;18.38
40199;BMP280;25906;43.536;26.068;2023-02-24T14:01:14;98257.84;;;18.93
40199;BMP280;25906;43.536;26.068;2023-02-24T14:07:08;98250.31;;;18.73
40199;BMP280;25906;43.536;26.068;2023-02-24T14:09:57;98239.22;;;13.69
40199;BMP280;25906;43.536;26.068;2023-02-24T14:12:44;98234.00;;;12.64
40199;BMP280;25906;43.536;26.068;2023-02-24T14:15:31;98230.13;;;12.67
40199;BMP280;25906;43.536;26.068;2023-02-24T14:18:24;98229.56;;;12.46
40199;BMP280;25906;43.536;26.068;2023-02-24T14:21:21;98219.72;;;12.64
40199;BMP280;25906;43.536;26.068;2023-02-24T14:24:11;98221.13;;;12.76
40199;BMP280;25906;43.536;26.068;2023-02-24T14:26:58;98225.22;;;12.88
40199;BMP280;25906;43.536;26.068;2023-02-24T14:29:43;98227.38;;;12.90
40199;BMP280;25906;43.536;26.068;2023-02-24T14:32:31;98221.25;;;12.67
40199;BMP280;25906;43.536;26.068;2023-02-24T14:35:30;98213.84;;;12.44
40199;BMP280;25906;43.536;26.068;2023-02-24T14:38:34;98210.06;;;12.49
40199;BMP280;25906;43.536;26.068;2023-02-24T14:41:22;98204.50;;;12.47
40199;BMP280;25906;43.536;26.068;2023-02-24T14:44:28;98202.16;;;12.31
40199;BMP280;25906;43.536;26.068;2023-02-24T14:47:15;98204.63;;;12.38
40199;BMP280;25906;43.536;26.068;2023-02-24T14:50:02;98198.38;;;12.47
40199;BMP280;25906;43.536;26.068;2023-02-24T14:55:46;98197.06;;;12.48
40199;BMP280;25906;43.536;26.068;2023-02-24T14:58:50;98209.00;;;12.54
40199;BMP280;25906;43.536;26.068;2023-02-24T15:01:43;98198.94;;;12.68
40199;BMP280;25906;43.536;26.068;2023-02-24T15:04:36;98186.34;;;12.50
40199;BMP280;25906;43.536;26.068;2023-02-24T15:07:33;98189.81;;;12.75
40199;BMP280;25906;43.536;26.068;2023-02-24T15:10:23;98197.28;;;12.75
40199;BMP280;25906;43.536;26.068;2023-02-24T15:13:16;98184.78;;;12.58
40199;BMP280;25906;43.536;26.068;2023-02-24T15:16:25;98199.03;;;16.37
40199;BMP280;25906;43.536;26.068;2023-02-24T15:22:31;98198.16;;;16.99
40199;BMP280;25906;43.536;26.068;2023-02-24T15:25:22;98194.88;;;17.03
40199;BMP280;25906;43.536;26.068;2023-02-24T15:28:26;98194.56;;;17.12
40199;BMP280;25906;43.536;26.068;2023-02-24T15:31:17;98189.00;;;16.58
40199;BMP280;25906;43.536;26.068;2023-02-24T15:34:03;98191.94;;;16.14
40199;BMP280;25906;43.536;26.068;2023-02-24T15:36:50;98192.00;;;14.69
40199;BMP280;25906;43.536;26.068;2023-02-24T15:39:41;98197.84;;;16.09
40199;BMP280;25906;43.536;26.068;2023-02-24T15:42:31;98191.50;;;16.04
40199;BMP280;25906;43.536;26.068;2023-02-24T15:45:31;98190.31;;;16.25
40199;BMP280;25906;43.536;26.068;2023-02-24T15:48:22;98182.91;;;16.27
40199;BMP280;25906;43.536;26.068;2023-02-24T15:51:19;98186.19;;;16.08
40199;BMP280;25906;43.536;26.068;2023-02-24T15:54:07;98183.66;;;16.12
40199;BMP280;25906;43.536;26.068;2023-02-24T15:56:58;98182.22;;;16.11
40199;BMP280;25906;43.536;26.068;2023-02-24T15:59:45;98183.91;;;16.18
40199;BMP280;25906;43.536;26.068;2023-02-24T16:02:30;98180.16;;;15.95
40199;BMP280;25906;43.536;26.068;2023-02-24T16:05:16;98184.19;;;16.09
40199;BMP280;25906;43.536;26.068;2023-02-24T16:08:02;98186.34;;;16.28
40199;BMP280;25906;43.536;26.068;2023-02-24T16:10:47;98184.94;;;12.96
40199;BMP280;25906;43.536;26.068;2023-02-24T16:13:34;98184.00;;;12.33
40199;BMP280;25906;43.536;26.068;2023-02-24T16:16:20;98183.22;;;11.64
40199;BMP280;25906;43.536;26.068;2023-02-24T16:19:06;98182.78;;;11.47
40199;BMP280;25906;43.536;26.068;2023-02-24T16:21:52;98181.91;;;11.65
40199;BMP280;25906;43.536;26.068;2023-02-24T16:24:37;98179.84;;;11.11
40199;BMP280;25906;43.536;26.068;2023-02-24T16:27:23;98186.41;;;11.29
40199;BMP280;25906;43.536;26.068;2023-02-24T16:30:17;98193.56;;;11.24
40199;BMP280;25906;43.536;26.068;2023-02-24T16:33:03;98187.69;;;11.28
40199;BMP280;25906;43.536;26.068;2023-02-24T16:35:49;98185.94;;;11.32
40199;BMP280;25906;43.536;26.068;2023-02-24T16:38:37;98189.31;;;11.21
40199;BMP280;25906;43.536;26.068;2023-02-24T16:41:23;98186.53;;;11.10
40199;BMP280;25906;43.536;26.068;2023-02-24T16:44:08;98192.19;;;11.35
40199;BMP280;25906;43.536;26.068;2023-02-24T16:46:54;98193.03;;;11.37
40199;BMP280;25906;43.536;26.068;2023-02-24T16:49:40;98192.78;;;11.33
40199;BMP280;25906;43.536;26.068;2023-02-24T16:52:26;98196.66;;;11.42
40199;BMP280;25906;43.536;26.068;2023-02-24T16:55:13;98204.59;;;11.17
40199;BMP280;25906;43.536;26.068;2023-02-24T16:57:59;98204.25;;;10.81
40199;BMP280;25906;43.536;26.068;2023-02-24T17:00:46;98201.38;;;11.09
40199;BMP280;25906;43.536;26.068;2023-02-24T17:03:41;98203.19;;;11.16
40199;BMP280;25906;43.536;26.068;2023-02-24T17:06:27;98197.53;;;11.12
40199;BMP280;25906;43.536;26.068;2023-02-24T17:09:13;98198.69;;;11.09
40199;BMP280;25906;43.536;26.068;2023-02-24T17:11:59;98193.25;;;11.09
40199;BMP280;25906;43.536;26.068;2023-02-24T17:14:45;98199.88;;;11.17
40199;BMP280;25906;43.536;26.068;2023-02-24T17:17:31;98191.00;;;11.05
40199;BMP280;25906;43.536;26.068;2023-02-24T17:20:18;98191.59;;;10.83
40199;BMP280;25906;43.536;26.068;2023-02-24T17:23:04;98192.94;;;10.73
40199;BMP280;25906;43.536;26.068;2023-02-24T17:25:55;98184.59;;;10.80
40199;BMP280;25906;43.536;26.068;2023-02-24T17:28:43;98182.38;;;10.77
40199;BMP280;25906;43.536;26.068;2023-02-24T17:31:29;98181.09;;;10.48
40199;BMP280;25906;43.536;26.068;2023-02-24T17:34:15;98174.88;;;10.45
40199;BMP280;25906;43.536;26.068;2023-02-24T17:37:01;98180.78;;;10.53
40199;BMP280;25906;43.536;26.068;2023-02-24T17:39:47;98170.28;;;10.48
40199;BMP280;25906;43.536;26.068;2023-02-24T17:42:33;98166.91;;;10.38
40199;BMP280;25906;43.536;26.068;2023-02-24T17:45:18;98170.06;;;10.34
40199;BMP280;25906;43.536;26.068;2023-02-24T17:48:04;98174.03;;;10.43
40199;BMP280;25906;43.536;26.068;2023-02-24T17:50:50;98175.31;;;10.32
40199;BMP280;25906;43.536;26.068;2023-02-24T17:53:36;98168.47;;;10.41
40199;BMP280;25906;43.536;26.068;2023-02-24T17:56:21;98172.44;;;10.40
40199;BMP280;25906;43.536;26.068;2023-02-24T17:59:07;98161.56;;;10.28